createdAt,value
2019-02-04T00:00:07.632Z,4.02
2019-02-04T00:02:40.799Z,4.00
2019-02-04T00:05:12.282Z,3.97
2019-02-04T00:07:43.774Z,3.97
2019-02-04T00:10:15.592Z,3.89
2019-02-04T00:12:47.048Z,3.82
2019-02-04T00:15:18.940Z,3.83
2019-02-04T00:17:50.477Z,3.79
2019-02-04T00:20:22.109Z,3.70
2019-02-04T00:22:53.669Z,3.79
2019-02-04T00:25:25.324Z,3.82
2019-02-04T00:27:57.650Z,3.87
2019-02-04T00:30:29.143Z,3.75
2019-02-04T00:33:00.629Z,3.79
2019-02-04T00:35:32.133Z,3.77
2019-02-04T00:38:03.606Z,3.79
2019-02-04T00:40:35.802Z,3.67
2019-02-04T00:43:07.275Z,3.63
2019-02-04T00:45:38.738Z,3.58
2019-02-04T00:48:10.201Z,3.59
2019-02-04T00:50:41.721Z,3.59
2019-02-04T00:53:13.421Z,3.56
2019-02-04T00:55:46.329Z,3.50
2019-02-04T00:58:17.809Z,3.52
2019-02-04T01:00:49.268Z,3.42
2019-02-04T01:03:20.749Z,3.51
2019-02-04T01:05:52.186Z,3.43
2019-02-04T01:08:23.624Z,3.30
2019-02-04T01:10:55.586Z,3.32
2019-02-04T01:13:28.423Z,3.40
2019-02-04T01:15:59.917Z,3.34
2019-02-04T01:18:31.377Z,3.32
2019-02-04T01:21:02.983Z,3.33
2019-02-04T01:23:34.613Z,3.28
2019-02-04T01:26:06.465Z,3.30
2019-02-04T01:28:38.293Z,3.19
2019-02-04T01:31:09.756Z,3.15
2019-02-04T01:33:41.261Z,3.20
2019-02-04T01:36:12.752Z,3.17
2019-02-04T01:38:44.223Z,3.07
2019-02-04T01:41:16.185Z,3.03
2019-02-04T01:43:47.670Z,2.99
2019-02-04T01:46:19.163Z,2.96
2019-02-04T01:48:50.656Z,2.88
2019-02-04T01:51:22.153Z,2.87
2019-02-04T01:53:53.681Z,2.82
2019-02-04T01:56:25.365Z,2.85
2019-02-04T01:58:56.820Z,2.87
2019-02-04T02:01:28.297Z,2.87
2019-02-04T02:03:59.731Z,2.80
2019-02-04T02:06:31.223Z,2.82
2019-02-04T02:09:04.366Z,2.72
2019-02-04T02:11:37.839Z,2.72
2019-02-04T02:14:09.304Z,2.72
2019-02-04T02:16:41.111Z,2.66
2019-02-04T02:19:12.590Z,2.61
2019-02-04T02:21:44.531Z,2.60
2019-02-04T02:24:16.054Z,2.61
2019-02-04T02:26:47.775Z,2.62
2019-02-04T02:29:19.645Z,2.56
2019-02-04T02:31:51.103Z,2.42
2019-02-04T02:34:22.617Z,2.24
2019-02-04T02:36:54.146Z,2.26
2019-02-04T02:39:25.747Z,2.24
2019-02-04T02:41:57.731Z,2.32
2019-02-04T02:44:29.243Z,2.29
2019-02-04T02:47:00.696Z,2.29
2019-02-04T02:49:32.162Z,2.36
2019-02-04T02:52:03.600Z,2.35
2019-02-04T02:54:35.319Z,2.31
2019-02-04T02:57:06.955Z,2.26
2019-02-04T02:59:38.404Z,2.32
2019-02-04T03:02:09.943Z,2.31
2019-02-04T03:04:41.392Z,2.32
2019-02-04T03:07:12.840Z,2.27
2019-02-04T03:09:44.301Z,2.20
2019-02-04T03:12:15.775Z,2.11
2019-02-04T03:14:47.251Z,2.15
2019-02-04T03:17:18.730Z,2.11
2019-02-04T03:19:50.193Z,2.04
2019-02-04T03:22:22.137Z,2.12
2019-02-04T03:24:53.627Z,2.14
2019-02-04T03:27:25.277Z,2.17
2019-02-04T03:29:57.022Z,2.10
2019-02-04T03:32:28.462Z,2.18
2019-02-04T03:34:59.927Z,2.14
2019-02-04T03:37:31.374Z,2.19
2019-02-04T03:40:02.820Z,2.24
2019-02-04T03:42:35.215Z,2.22
2019-02-04T03:45:07.053Z,2.18
2019-02-04T03:47:38.562Z,2.20
2019-02-04T03:50:11.769Z,2.22
2019-02-04T03:52:43.206Z,2.18
2019-02-04T03:55:15.407Z,2.14
2019-02-04T03:57:47.103Z,2.04
2019-02-04T04:00:22.453Z,1.94
2019-02-04T04:02:53.923Z,1.95
2019-02-04T04:05:25.449Z,1.90
2019-02-04T04:07:56.878Z,1.88
2019-02-04T04:10:28.337Z,1.92
2019-02-04T04:13:01.161Z,1.93
2019-02-04T04:15:32.821Z,1.79
2019-02-04T04:18:15.050Z,1.79
2019-02-04T04:20:37.734Z,1.70
2019-02-04T04:23:09.375Z,1.67
2019-02-04T04:25:40.781Z,1.77
2019-02-04T04:28:12.262Z,1.71
2019-02-04T04:30:43.782Z,1.76
2019-02-04T04:33:15.412Z,1.67
2019-02-04T04:35:46.841Z,1.83
2019-02-04T04:38:18.330Z,1.66
2019-02-04T04:40:49.807Z,1.71
2019-02-04T04:43:21.560Z,1.62
2019-02-04T04:45:53.039Z,1.46
2019-02-04T04:48:26.567Z,1.58
2019-02-04T04:50:59.048Z,1.70
2019-02-04T04:53:30.487Z,1.46
2019-02-04T04:56:01.957Z,1.47
2019-02-04T04:58:34.891Z,1.44
2019-02-04T05:01:06.387Z,1.56
2019-02-04T05:03:38.027Z,1.39
2019-02-04T05:06:09.500Z,1.46
2019-02-04T05:08:40.965Z,1.32
2019-02-04T05:11:12.517Z,1.51
2019-02-04T05:13:44.000Z,1.49
2019-02-04T05:16:16.689Z,1.32
2019-02-04T05:18:48.626Z,1.49
2019-02-04T05:21:20.120Z,1.38
2019-02-04T05:23:51.794Z,1.24
2019-02-04T05:26:23.243Z,1.20
2019-02-04T05:28:54.974Z,1.34
2019-02-04T05:31:26.456Z,1.43
2019-02-04T05:33:57.910Z,1.32
2019-02-04T05:36:29.362Z,1.31
2019-02-04T05:39:00.776Z,1.35
2019-02-04T05:41:33.891Z,1.42
2019-02-04T05:44:05.593Z,1.37
2019-02-04T05:46:37.060Z,1.26
2019-02-04T05:49:08.637Z,1.28
2019-02-04T05:51:40.175Z,1.20
2019-02-04T05:54:11.610Z,1.17
2019-02-04T05:56:43.096Z,1.24
2019-02-04T05:59:14.817Z,1.31
2019-02-04T06:01:46.301Z,1.34
2019-02-04T06:04:17.726Z,1.43
2019-02-04T06:06:49.218Z,1.38
2019-02-04T06:09:20.709Z,1.47
2019-02-04T06:11:52.192Z,1.54
2019-02-04T06:14:24.016Z,1.37
2019-02-04T06:16:55.474Z,1.44
2019-02-04T06:19:27.533Z,1.51
2019-02-04T06:21:59.076Z,1.43
2019-02-04T06:24:30.821Z,1.47
2019-02-04T06:27:02.279Z,1.51
2019-02-04T06:29:34.028Z,1.48
2019-02-04T06:32:05.940Z,1.38
2019-02-04T06:34:37.372Z,1.46
2019-02-04T06:37:09.078Z,1.39
2019-02-04T06:39:40.564Z,1.45
2019-02-04T06:42:12.016Z,1.53
2019-02-04T06:44:44.313Z,1.46
2019-02-04T06:47:16.054Z,1.41
2019-02-04T06:49:47.504Z,1.52
2019-02-04T06:52:18.972Z,1.39
2019-02-04T06:54:50.698Z,1.43
2019-02-04T06:57:22.589Z,1.45
2019-02-04T06:59:54.397Z,1.37
2019-02-04T07:02:25.811Z,1.58
2019-02-04T07:04:57.308Z,1.54
2019-02-04T07:07:28.840Z,1.61
2019-02-04T07:10:00.755Z,1.50
2019-02-04T07:12:32.458Z,1.53
2019-02-04T07:15:04.133Z,1.73
2019-02-04T07:17:35.592Z,1.66
2019-02-04T07:20:09.366Z,1.57
2019-02-04T07:22:40.920Z,1.79
2019-02-04T07:25:13.239Z,1.70
2019-02-04T07:27:44.750Z,1.77
2019-02-04T07:30:19.448Z,1.76
2019-02-04T07:32:51.441Z,1.77
2019-02-04T07:35:23.000Z,1.76
2019-02-04T07:37:54.458Z,1.73
2019-02-04T07:40:29.169Z,1.74
2019-02-04T07:43:00.669Z,1.83
2019-02-04T07:45:32.835Z,1.87
2019-02-04T07:48:04.358Z,1.92
2019-02-04T07:50:35.814Z,1.90
2019-02-04T07:53:07.337Z,1.82
2019-02-04T07:55:38.803Z,1.92
2019-02-04T07:58:10.750Z,1.92
2019-02-04T08:00:42.434Z,1.97
2019-02-04T08:03:15.137Z,2.03
2019-02-04T08:05:46.763Z,2.16
2019-02-04T08:08:18.302Z,2.03
2019-02-04T08:10:50.013Z,2.18
2019-02-04T08:13:28.056Z,2.13
2019-02-04T08:15:59.733Z,2.21
2019-02-04T08:18:31.252Z,2.29
2019-02-04T08:21:02.836Z,2.27
2019-02-04T08:23:34.305Z,2.17
2019-02-04T08:26:05.997Z,2.21
2019-02-04T08:28:37.508Z,2.19
2019-02-04T08:31:09.211Z,2.29
2019-02-04T08:33:40.644Z,2.35
2019-02-04T08:36:12.110Z,2.44
2019-02-04T08:38:43.656Z,2.40
2019-02-04T08:41:15.126Z,2.24
2019-02-04T08:43:46.678Z,2.39
2019-02-04T08:46:18.478Z,2.37
2019-02-04T08:48:49.977Z,2.33
2019-02-04T08:51:21.427Z,2.42
2019-02-04T08:53:52.911Z,2.49
2019-02-04T08:56:24.372Z,2.41
2019-02-04T08:58:55.910Z,2.49
2019-02-04T09:01:27.724Z,2.67
2019-02-04T09:03:59.324Z,2.91
2019-02-04T09:06:32.454Z,3.16
2019-02-04T09:09:05.848Z,2.97
2019-02-04T09:11:37.854Z,3.13
2019-02-04T09:14:09.632Z,3.16
2019-02-04T09:16:41.357Z,3.12
2019-02-04T09:19:12.880Z,3.21
2019-02-04T09:21:44.424Z,3.28
2019-02-04T09:24:16.247Z,3.48
2019-02-04T09:26:48.127Z,3.35
2019-02-04T09:29:19.719Z,3.45
2019-02-04T09:31:51.556Z,3.58
2019-02-04T09:34:23.015Z,3.25
2019-02-04T09:36:54.461Z,3.41
2019-02-04T09:39:26.412Z,3.26
2019-02-04T09:41:57.925Z,3.20
2019-02-04T09:44:29.518Z,3.24
2019-02-04T09:47:01.257Z,3.15
2019-02-04T09:49:32.771Z,3.18
2019-02-04T09:52:04.784Z,3.24
2019-02-04T09:54:36.489Z,3.18
2019-02-04T09:57:08.276Z,3.01
2019-02-04T09:59:39.782Z,3.04
2019-02-04T10:02:11.567Z,3.01
2019-02-04T10:04:43.606Z,3.15
2019-02-04T10:07:15.119Z,3.25
2019-02-04T10:09:46.602Z,3.28
2019-02-04T10:12:18.047Z,3.11
2019-02-04T10:14:49.477Z,3.23
2019-02-04T10:17:21.032Z,3.00
2019-02-04T10:19:52.600Z,2.92
2019-02-04T10:22:24.312Z,2.85
2019-02-04T10:24:55.939Z,2.92
2019-02-04T10:27:27.550Z,2.95
2019-02-04T10:29:59.174Z,3.14
2019-02-04T10:32:31.879Z,2.97
2019-02-04T10:35:03.463Z,3.02
2019-02-04T10:37:35.089Z,3.15
2019-02-04T10:40:07.979Z,2.78
2019-02-04T10:42:39.445Z,2.86
2019-02-04T10:45:12.093Z,2.95
2019-02-04T10:47:44.556Z,2.97
2019-02-04T10:50:22.996Z,2.95
2019-02-04T10:52:54.542Z,2.67
2019-02-04T10:55:26.140Z,2.81
2019-02-04T10:57:57.851Z,2.76
2019-02-04T11:00:31.908Z,3.00
2019-02-04T11:03:03.821Z,2.92
2019-02-04T11:05:36.394Z,2.79
2019-02-04T11:08:08.963Z,2.80
2019-02-04T11:10:40.483Z,2.80
2019-02-04T11:13:17.287Z,2.88
2019-02-04T11:15:49.567Z,2.96
2019-02-04T11:18:21.213Z,2.74
2019-02-04T11:20:58.189Z,2.78
2019-02-04T11:23:25.853Z,2.89
2019-02-04T11:25:57.370Z,2.97
2019-02-04T11:28:28.986Z,2.73
2019-02-04T11:31:03.591Z,2.86
2019-02-04T11:33:35.463Z,2.64
2019-02-04T11:36:07.045Z,2.59
2019-02-04T11:38:38.903Z,2.68
2019-02-04T11:41:10.612Z,2.85
2019-02-04T11:43:42.242Z,2.82
2019-02-04T11:46:13.741Z,2.90
2019-02-04T11:48:45.363Z,2.81
2019-02-04T11:51:17.438Z,2.73
2019-02-04T11:53:48.964Z,2.66
2019-02-04T11:56:20.520Z,2.60
2019-02-04T11:58:52.035Z,2.69
2019-02-04T12:01:23.525Z,2.73
2019-02-04T12:03:55.285Z,2.65
2019-02-04T12:06:26.797Z,2.51
2019-02-04T12:08:58.322Z,2.69
2019-02-04T12:11:29.829Z,2.75
2019-02-04T12:14:01.308Z,2.71
2019-02-04T12:16:33.082Z,2.70
2019-02-04T12:19:04.804Z,2.81
2019-02-04T12:21:36.310Z,2.81
2019-02-04T12:24:07.858Z,2.82
2019-02-04T12:26:39.339Z,2.87
2019-02-04T12:29:11.127Z,2.79
2019-02-04T12:31:42.626Z,2.88
2019-02-04T12:34:14.290Z,2.98
2019-02-04T12:36:45.882Z,3.05
2019-02-04T12:39:20.431Z,2.77
2019-02-04T12:41:52.118Z,2.88
2019-02-04T12:44:23.682Z,2.99
2019-02-04T12:46:55.198Z,2.90
2019-02-04T12:49:27.017Z,2.93
2019-02-04T12:51:58.652Z,2.89
2019-02-04T12:54:30.139Z,2.91
2019-02-04T12:57:01.624Z,2.88
2019-02-04T12:59:33.159Z,2.84
2019-02-04T13:02:04.653Z,2.77
2019-02-04T13:04:36.433Z,2.98
2019-02-04T13:07:07.882Z,3.02
2019-02-04T13:09:39.365Z,3.06
2019-02-04T13:12:10.886Z,3.11
2019-02-04T13:14:42.354Z,3.07
2019-02-04T13:17:13.933Z,2.94
2019-02-04T13:19:46.094Z,2.98
2019-02-04T13:22:17.631Z,3.09
2019-02-04T13:24:49.101Z,3.14
2019-02-04T13:27:20.595Z,2.95
2019-02-04T13:29:52.929Z,2.86
2019-02-04T13:32:24.409Z,2.89
2019-02-04T13:34:56.012Z,2.79
2019-02-04T13:37:27.469Z,2.84
2019-02-04T13:39:58.965Z,2.87
2019-02-04T13:42:30.810Z,2.87
2019-02-04T13:45:02.283Z,2.95
2019-02-04T13:47:33.838Z,2.99
2019-02-04T13:50:06.726Z,3.00
2019-02-04T13:52:38.225Z,3.02
2019-02-04T13:55:13.545Z,2.96
2019-02-04T13:57:45.003Z,2.93
2019-02-04T14:00:16.760Z,2.87
2019-02-04T14:02:58.910Z,2.82
2019-02-04T14:05:21.470Z,2.89
2019-02-04T14:07:53.021Z,2.59
2019-02-04T14:10:31.085Z,2.72
2019-02-04T14:13:02.889Z,2.79
2019-02-04T14:15:35.770Z,2.75
2019-02-04T14:18:08.718Z,2.81
2019-02-04T14:20:40.662Z,2.85
2019-02-04T14:23:13.357Z,2.83
2019-02-04T14:25:44.891Z,2.86
2019-02-04T14:28:17.138Z,2.83
2019-02-04T14:30:48.890Z,2.83
2019-02-04T14:33:20.536Z,2.83
2019-02-04T14:35:52.268Z,2.83
2019-02-04T14:38:23.883Z,2.74
2019-02-04T14:40:57.862Z,2.74
2019-02-04T14:44:01.849Z,2.61
2019-02-04T14:47:21.983Z,2.62
2019-02-04T14:50:46.158Z,2.64
2019-02-04T14:54:20.438Z,2.54
2019-02-04T14:57:46.389Z,2.51
2019-02-04T15:01:24.737Z,2.49
2019-02-04T15:04:51.898Z,2.41
2019-02-04T15:08:35.248Z,2.43
2019-02-04T15:12:21.069Z,2.44
2019-02-04T15:15:43.837Z,2.38
2019-02-04T15:19:23.063Z,2.27
2019-02-04T15:23:18.077Z,2.20
2019-02-04T15:26:42.181Z,2.30
2019-02-04T15:30:20.677Z,2.28
2019-02-04T15:33:53.540Z,2.20
2019-02-04T15:37:27.499Z,2.14
2019-02-04T15:41:20.114Z,2.12
2019-02-04T15:44:33.072Z,2.11
2019-02-04T15:47:50.591Z,2.13
2019-02-04T15:51:14.929Z,2.18
2019-02-04T15:53:46.486Z,2.28
2019-02-04T15:56:17.988Z,2.19
2019-02-04T15:58:49.584Z,2.22
2019-02-04T16:01:22.329Z,2.18
2019-02-04T16:03:53.911Z,2.23
2019-02-04T16:06:25.556Z,2.27
2019-02-04T16:08:57.107Z,2.12
2019-02-04T16:11:28.864Z,2.21
2019-02-04T16:14:00.456Z,2.17
2019-02-04T16:16:32.155Z,2.15
2019-02-04T16:19:03.686Z,2.13
2019-02-04T16:21:35.259Z,2.12
2019-02-04T16:24:07.074Z,2.05
2019-02-04T16:26:38.795Z,1.91
2019-02-04T16:29:11.057Z,1.96
2019-02-04T16:31:42.920Z,2.06
2019-02-04T16:34:14.586Z,2.09
2019-02-04T16:36:46.258Z,2.15
2019-02-04T16:39:17.991Z,2.16
2019-02-04T16:41:49.977Z,2.13
2019-02-04T16:44:21.570Z,2.07
2019-02-04T16:46:54.680Z,2.01
2019-02-04T16:49:26.298Z,1.93
2019-02-04T16:51:57.930Z,1.96
2019-02-04T16:54:29.668Z,2.03
2019-02-04T16:57:02.509Z,2.01
2019-02-04T16:59:34.538Z,2.02
2019-02-04T17:02:06.414Z,1.96
2019-02-04T17:04:38.053Z,1.99
2019-02-04T17:07:09.642Z,2.05
2019-02-04T17:09:41.780Z,2.11
2019-02-04T17:12:14.317Z,2.09
2019-02-04T17:14:46.031Z,2.08
2019-02-04T17:17:17.631Z,2.07
2019-02-04T17:19:50.169Z,2.10
2019-02-04T17:22:22.649Z,2.14
2019-02-04T17:24:54.200Z,2.14
2019-02-04T17:27:25.772Z,2.15
2019-02-04T17:29:57.522Z,2.17
2019-02-04T17:32:29.247Z,2.21
2019-02-04T17:35:01.367Z,2.26
2019-02-04T17:37:33.383Z,2.29
2019-02-04T17:40:05.979Z,2.26
2019-02-04T17:42:37.913Z,2.23
2019-02-04T17:45:11.275Z,2.27
2019-02-04T17:47:42.878Z,2.26
2019-02-04T17:50:16.770Z,2.20
2019-02-04T17:52:48.364Z,2.19
2019-02-04T17:55:22.345Z,2.20
2019-02-04T17:57:54.730Z,2.23
2019-02-04T18:00:36.163Z,2.19
2019-02-04T18:03:07.887Z,2.16
2019-02-04T18:05:39.465Z,2.21
2019-02-04T18:08:11.038Z,2.25
2019-02-04T18:10:42.520Z,2.27
2019-02-04T18:13:14.364Z,2.23
2019-02-04T18:15:45.857Z,2.16
2019-02-04T18:18:17.549Z,2.17
2019-02-04T18:20:49.048Z,2.22
2019-02-04T18:23:20.712Z,2.27
2019-02-04T18:25:52.224Z,2.23
2019-02-04T18:28:24.240Z,2.28
2019-02-04T18:30:56.053Z,2.23
2019-02-04T18:33:28.117Z,2.13
2019-02-04T18:35:59.970Z,2.09
2019-02-04T18:38:32.194Z,2.12
2019-02-04T18:41:05.736Z,2.15
2019-02-04T18:43:38.363Z,2.22
2019-02-04T18:46:10.079Z,2.20
2019-02-04T18:48:42.177Z,2.16
2019-02-04T18:51:13.805Z,2.13
2019-02-04T18:53:57.161Z,2.02
2019-02-04T18:56:18.456Z,1.75
2019-02-04T18:58:50.166Z,1.74
2019-02-04T19:01:21.718Z,1.67
2019-02-04T19:03:53.321Z,1.62
2019-02-04T19:06:25.838Z,1.66
2019-02-04T19:08:57.410Z,1.80
2019-02-04T19:11:29.321Z,1.91
2019-02-04T19:14:01.271Z,1.99
2019-02-04T19:16:32.917Z,2.03
2019-02-04T19:19:04.399Z,2.02
2019-02-04T19:21:38.207Z,1.97
2019-02-04T19:24:10.050Z,1.94
2019-02-04T19:26:42.013Z,1.99
2019-02-04T19:29:13.880Z,1.94
2019-02-04T19:31:46.560Z,1.93
2019-02-04T19:34:19.147Z,1.86
2019-02-04T19:36:50.781Z,1.75
2019-02-04T19:39:22.500Z,1.84
2019-02-04T19:41:54.576Z,1.75
2019-02-04T19:44:26.693Z,1.76
2019-02-04T19:46:58.233Z,1.82
2019-02-04T19:49:29.756Z,1.74
2019-02-04T19:52:01.365Z,1.56
2019-02-04T19:54:32.887Z,1.55
2019-02-04T19:57:04.722Z,1.66
2019-02-04T19:59:36.425Z,1.47
2019-02-04T20:02:07.940Z,1.35
2019-02-04T20:04:40.572Z,1.41
2019-02-04T20:07:12.204Z,1.45
2019-02-04T20:09:44.155Z,1.55
2019-02-04T20:12:16.014Z,1.64
2019-02-04T20:14:47.901Z,1.75
2019-02-04T20:17:20.906Z,1.76
2019-02-04T20:19:52.687Z,1.65
2019-02-04T20:22:25.450Z,1.41
2019-02-04T20:24:57.791Z,1.26
2019-02-04T20:27:30.172Z,1.24
2019-02-04T20:30:01.902Z,1.19
2019-02-04T20:32:34.240Z,1.16
2019-02-04T20:35:07.056Z,1.31
2019-02-04T20:37:39.089Z,1.43
2019-02-04T20:40:12.722Z,1.45
2019-02-04T20:42:44.328Z,1.53
2019-02-04T20:45:16.164Z,1.49
2019-02-04T20:47:48.328Z,1.49
2019-02-04T20:50:29.498Z,1.45
2019-02-04T20:53:01.723Z,1.43
2019-02-04T20:55:34.667Z,1.45
2019-02-04T20:58:06.550Z,1.29
2019-02-04T21:00:38.628Z,1.28
2019-02-04T21:03:10.248Z,1.13
2019-02-04T21:05:42.039Z,0.91
2019-02-04T21:08:13.706Z,0.65
2019-02-04T21:10:45.367Z,0.90
2019-02-04T21:13:17.041Z,0.92
2019-02-04T21:15:48.950Z,1.00
2019-02-04T21:18:20.848Z,1.09
2019-02-04T21:20:52.708Z,1.18
2019-02-04T21:23:24.744Z,1.26
2019-02-04T21:25:56.658Z,1.32
2019-02-04T21:28:28.557Z,1.31
2019-02-04T21:31:00.525Z,1.08
2019-02-04T21:33:32.246Z,1.02
2019-02-04T21:36:03.847Z,0.87
2019-02-04T21:38:35.769Z,0.91
2019-02-04T21:41:08.544Z,0.66
2019-02-04T21:43:40.224Z,0.54
2019-02-04T21:46:12.365Z,0.65
2019-02-04T21:48:44.022Z,0.41
2019-02-04T21:51:15.653Z,0.28
2019-02-04T21:53:47.253Z,0.34
2019-02-04T21:56:18.791Z,0.38
2019-02-04T21:58:50.468Z,0.49
2019-02-04T22:01:22.819Z,0.60
2019-02-04T22:03:54.589Z,0.77
2019-02-04T22:06:26.261Z,0.69
2019-02-04T22:08:57.894Z,0.69
2019-02-04T22:11:29.543Z,0.64
2019-02-04T22:14:01.599Z,0.85
2019-02-04T22:16:33.479Z,0.90
2019-02-04T22:19:05.345Z,0.57
2019-02-04T22:21:36.813Z,0.79
2019-02-04T22:24:08.763Z,0.96
2019-02-04T22:26:40.260Z,0.80
2019-02-04T22:29:12.048Z,0.62
2019-02-04T22:31:43.596Z,0.60
2019-02-04T22:34:15.563Z,0.58
2019-02-04T22:36:47.077Z,0.48
2019-02-04T22:39:19.029Z,0.63
2019-02-04T22:41:50.692Z,0.70
2019-02-04T22:44:22.194Z,0.68
2019-02-04T22:46:54.099Z,0.62
2019-02-04T22:49:25.619Z,0.58
2019-02-04T22:51:57.217Z,0.63
2019-02-04T22:54:28.699Z,0.60
2019-02-04T22:57:00.554Z,0.55
2019-02-04T22:59:32.022Z,0.53
2019-02-04T23:02:03.725Z,0.63
2019-02-04T23:04:35.340Z,0.59
2019-02-04T23:07:07.410Z,0.63
2019-02-04T23:09:38.876Z,0.73
2019-02-04T23:12:10.409Z,0.60
2019-02-04T23:14:41.855Z,0.69
2019-02-04T23:17:13.620Z,0.63
2019-02-04T23:19:45.093Z,0.53
2019-02-04T23:22:17.054Z,0.53
2019-02-04T23:24:48.531Z,0.65
2019-02-04T23:27:20.503Z,0.67
2019-02-04T23:29:52.173Z,0.64
2019-02-04T23:32:23.755Z,0.45
2019-02-04T23:34:55.335Z,0.57
2019-02-04T23:37:26.799Z,0.60
2019-02-04T23:39:59.446Z,0.52
2019-02-04T23:42:31.090Z,0.67
2019-02-04T23:45:02.563Z,0.73
2019-02-04T23:47:34.565Z,0.70
2019-02-04T23:50:07.167Z,0.71
2019-02-04T23:52:39.143Z,0.84
2019-02-04T23:55:10.698Z,0.82
2019-02-04T23:57:42.216Z,0.35
